Time;durP1;ratioP1;P1;durP2;ratioP2;P2;SDS_P1;SDS_P2;PMS_P1;PMS_P2;Temp;Humidity;BMP_temperature;BMP_pressure;BME280_temperature;BME280_humidity;BME280_pressure;Samples;Min_cycle;Max_cycle;Signal;HPM_P1;HPM_P2
2022/03/22 00:01:16;;;;;;;;;;;;;;;-143.90;100.00;55186.69;2092974;28;19987;-64
2022/03/22 00:02:37;;;;;;;;;;;;;;;-143.90;100.00;55166.81;2092723;28;19986;-63
2022/03/22 00:04:02;;;;;;;;;;;;;;;-143.90;100.00;55206.53;2091998;28;20473;-63
2022/03/22 00:05:23;;;;;;;;;;;;;;;-143.90;100.00;55214.47;2092738;28;20439;-63
2022/03/22 00:06:44;;;;;;;;;;;;;;;-143.90;100.00;55218.44;2093145;28;20061;-63
2022/03/22 00:08:05;;;;;;;;;;;;;;;-143.90;100.00;55200.56;2085321;28;19932;-62
2022/03/22 00:09:26;;;;;;;;;;;;;;;-143.90;100.00;55210.50;2090461;28;19920;-63
2022/03/22 00:10:47;;;;;;;;;;;;;;;-143.90;100.00;55216.47;2092510;28;19920;-62
2022/03/22 00:12:07;;;;;;;;;;;;;;;-143.90;100.00;55226.38;2092629;28;19924;-63
2022/03/22 00:13:28;;;;;;;;;;;;;;;-143.90;100.00;55218.44;2085069;28;19929;-63
2022/03/22 00:14:49;;;;;;;;;;;;;;;-143.90;100.00;55218.44;2090041;28;19920;-63
2022/03/22 00:16:12;;;;;;;;;;;;;;;-143.90;100.00;55208.50;2091611;28;19928;-62
2022/03/22 00:17:32;;;;;;;;;;;;;;;-143.90;100.00;55174.75;2091858;28;20432;-63
2022/03/22 00:18:53;;;;;;;;;;;;;;;-143.90;100.00;55204.53;2092633;28;20359;-63
2022/03/22 00:20:15;;;;;;;;;;;;;;;-143.90;100.00;55206.53;2084271;28;19921;-63
2022/03/22 00:21:36;;;;;;;;;;;;;;;-143.90;100.00;55210.50;2090615;28;20407;-62
2022/03/22 00:22:57;;;;;;;;;;;;;;;-143.90;100.00;55210.50;2093147;28;19927;-63
2022/03/22 00:24:17;;;;;;;;;;;;;;;-143.90;100.00;55234.31;2093239;28;20019;-63
2022/03/22 00:25:38;;;;;;;;;;;;;;;-143.90;100.00;55174.75;2092295;28;19939;-63
2022/03/22 00:26:58;;;;;;;;;;;;;;;-143.90;100.00;55192.63;2092461;28;19928;-63
2022/03/22 00:28:19;;;;;;;;;;;;;;;-143.90;100.00;55260.16;2083406;28;19949;-63
2022/03/22 00:29:40;;;;;;;;;;;;;;;-143.90;100.00;55236.31;2090294;28;19920;-63
2022/03/22 00:31:02;;;;;;;;;;;;;;;-143.90;100.00;55202.56;2093515;28;20378;-63
2022/03/22 00:32:24;;;;;;;;;;;;;;;-143.90;100.00;55234.31;2092356;28;19959;-63
2022/03/22 00:33:44;;;;;;;;;;;;;;;-143.90;100.00;55222.41;2091759;28;19947;-63
2022/03/22 00:35:05;;;;;;;;;;;;;;;-143.90;100.00;55242.28;2092110;28;19938;-63
2022/03/22 00:36:26;;;;;;;;;;;;;;;-143.90;100.00;55222.41;2090366;28;19920;-64
2022/03/22 00:37:49;;;;;;;;;;;;;;;-143.90;100.00;55190.66;2093745;28;19931;-63
2022/03/22 00:39:10;;;;;;;;;;;;;;;-143.90;100.00;55204.53;2092615;28;19939;-63
2022/03/22 00:40:31;;;;;;;;;;;;;;;-143.90;100.00;55202.56;2093741;28;19921;-64
2022/03/22 00:41:52;;;;;;;;;;;;;;;-143.90;100.00;55162.84;2092799;28;19920;-63
2022/03/22 00:43:14;;;;;;;;;;;;;;;-143.90;100.00;55234.31;2092947;28;19920;-63
2022/03/22 00:44:37;;;;;;;;;;;;;;;-143.90;100.00;55202.56;2092193;28;19924;-63
2022/03/22 00:45:57;;;;;;;;;;;;;;;-143.90;100.00;55198.59;2092480;28;19993;-63
2022/03/22 00:47:18;;;;;;;;;;;;;;;-143.90;100.00;55186.69;2092654;28;20627;-63
2022/03/22 00:48:40;;;;;;;;;;;;;;;-143.90;100.00;55206.53;2091920;28;20489;-63
2022/03/22 00:50:02;;;;;;;;;;;;;;;-143.90;100.00;55214.47;2090577;28;20279;-63
2022/03/22 00:51:24;;;;;;;;;;;;;;;-143.90;100.00;55202.56;2090979;28;19920;-63
2022/03/22 00:52:45;;;;;;;;;;;;;;;-143.90;100.00;55202.56;2091516;28;19920;-63
2022/03/22 00:54:06;;;;;;;;;;;;;;;-143.90;100.00;55170.78;2092718;28;19921;-63
2022/03/22 00:55:27;;;;;;;;;;;;;;;-143.90;100.00;55218.44;2092055;28;20037;-63
2022/03/22 00:56:48;;;;;;;;;;;;;;;-143.90;100.00;55190.66;2093450;28;19921;-63
2022/03/22 00:58:08;;;;;;;;;;;;;;;-143.90;100.00;55224.41;2092182;28;20016;-64
2022/03/22 01:01:08;;;;;;;;;;;;;;;-143.90;100.00;55210.50;2091416;28;19980;-63
2022/03/22 01:02:29;;;;;;;;;;;;;;;-143.90;100.00;55182.69;2090546;28;19925;-63
2022/03/22 01:03:50;;;;;;;;;;;;;;;-143.90;100.00;55214.47;2090260;28;20549;-63
2022/03/22 01:05:13;;;;;;;;;;;;;;;-143.90;100.00;55230.34;2091423;28;20443;-64
2022/03/22 01:06:34;;;;;;;;;;;;;;;-143.90;100.00;55206.53;2092978;28;19931;-62
2022/03/22 01:07:56;;;;;;;;;;;;;;;-143.90;100.00;55202.56;2091633;28;19920;-63
2022/03/22 01:09:16;;;;;;;;;;;;;;;-143.90;100.00;55238.31;2092923;28;20430;-63
2022/03/22 01:10:38;;;;;;;;;;;;;;;-143.90;100.00;55210.50;2091861;28;19927;-63
2022/03/22 01:11:59;;;;;;;;;;;;;;;-143.90;100.00;55192.63;2093828;28;19925;-64
2022/03/22 01:13:21;;;;;;;;;;;;;;;-143.90;100.00;55238.31;2095215;28;19978;-63
2022/03/22 01:14:42;;;;;;;;;;;;;;;-143.90;100.00;55208.50;2095278;28;19920;-63
2022/03/22 01:16:03;;;;;;;;;;;;;;;-143.90;100.00;55180.72;2093518;28;19920;-63
2022/03/22 01:17:23;;;;;;;;;;;;;;;-143.90;100.00;55208.50;2085200;28;19921;-63
2022/03/22 01:18:44;;;;;;;;;;;;;;;-143.90;100.00;55206.53;2090728;28;19920;-63
2022/03/22 01:20:09;;;;;;;;;;;;;;;-143.90;100.00;55224.41;2095097;28;19988;-63
2022/03/22 01:21:34;;;;;;;;;;;;;;;-143.90;100.00;55202.56;2093681;28;20376;-63
2022/03/22 01:22:55;;;;;;;;;;;;;;;-143.90;100.00;55194.63;2094598;28;19955;-63
2022/03/22 01:24:15;;;;;;;;;;;;;;;-143.90;100.00;55224.41;2094191;28;19928;-63
2022/03/22 01:25:37;;;;;;;;;;;;;;;-143.90;100.00;55218.44;2093402;28;20105;-63
2022/03/22 01:26:58;;;;;;;;;;;;;;;-143.90;100.00;55206.53;2094428;28;19928;-63
2022/03/22 01:28:18;;;;;;;;;;;;;;;-143.90;100.00;55150.94;2094646;28;19952;-63
2022/03/22 01:29:39;;;;;;;;;;;;;;;-143.90;100.00;55198.59;2094901;28;19927;-63
2022/03/22 01:31:00;;;;;;;;;;;;;;;-143.90;100.00;55194.63;2093948;28;19921;-63
2022/03/22 01:32:21;;;;;;;;;;;;;;;-143.90;100.00;55206.53;2094067;28;19927;-62
2022/03/22 01:33:41;;;;;;;;;;;;;;;-143.90;100.00;55166.81;2093988;28;19925;-63
2022/03/22 01:35:03;;;;;;;;;;;;;;;-143.90;100.00;55186.69;2093059;28;19920;-60
2022/03/22 01:36:24;;;;;;;;;;;;;;;-143.90;100.00;55190.66;2092705;28;19924;-62
2022/03/22 01:37:47;;;;;;;;;;;;;;;-143.90;100.00;55194.63;2094795;28;20009;-63
2022/03/22 01:39:07;;;;;;;;;;;;;;;-143.90;100.00;55196.59;2094735;28;19924;-63
2022/03/22 01:40:29;;;;;;;;;;;;;;;-143.90;100.00;55162.84;2092968;28;19924;-63
2022/03/22 01:41:49;;;;;;;;;;;;;;;-143.90;100.00;55174.75;2092992;28;19934;-63
2022/03/22 01:43:10;;;;;;;;;;;;;;;-143.90;100.00;55182.69;2094494;28;19994;-63
2022/03/22 01:44:32;;;;;;;;;;;;;;;-143.90;100.00;55146.97;2093299;28;19931;-63
2022/03/22 01:45:52;;;;;;;;;;;;;;;-143.90;100.00;55200.56;2093157;28;20363;-63
2022/03/22 01:47:14;;;;;;;;;;;;;;;-143.90;100.00;55198.59;2094234;28;19920;-63
2022/03/22 01:48:35;;;;;;;;;;;;;;;-143.90;100.00;55192.63;2084989;28;20882;-63
2022/03/22 01:49:55;;;;;;;;;;;;;;;-143.90;100.00;55188.66;2091011;28;20467;-62
2022/03/22 01:51:17;;;;;;;;;;;;;;;-143.90;100.00;55186.69;2093756;28;19924;-62
2022/03/22 01:52:44;;;;;;;;;;;;;;;-143.90;100.00;55192.63;2092459;28;19924;-62
2022/03/22 01:54:05;;;;;;;;;;;;;;;-143.90;100.00;55178.72;2093891;28;20610;-62
2022/03/22 01:55:26;;;;;;;;;;;;;;;-143.90;100.00;55182.69;2083835;28;19920;-62
2022/03/22 01:56:49;;;;;;;;;;;;;;;-143.90;100.00;55202.56;2091255;28;19924;-62
2022/03/22 01:58:09;;;;;;;;;;;;;;;-143.90;100.00;55192.63;2094251;28;19991;-62
2022/03/22 01:59:30;;;;;;;;;;;;;;;-143.90;100.00;55186.69;2093521;28;19927;-62
2022/03/22 02:05:51;;;;;;;;;;;;;;;-143.90;100.00;55230.34;2093432;28;19920;-63
2022/03/22 02:05:51;;;;;;;;;;;;;;;-143.90;100.00;55186.69;2093285;28;19928;-63
2022/03/22 02:07:13;;;;;;;;;;;;;;;-143.90;100.00;55178.72;2094057;28;19920;-62
2022/03/22 02:08:34;;;;;;;;;;;;;;;-143.90;100.00;55178.72;2084545;28;19928;-63
2022/03/22 02:09:54;;;;;;;;;;;;;;;-143.90;100.00;55186.69;2090793;28;19924;-63
2022/03/22 02:11:15;;;;;;;;;;;;;;;-143.90;100.00;55218.44;2092891;28;19978;-63
2022/03/22 02:12:36;;;;;;;;;;;;;;;-143.90;100.00;55194.63;2094830;28;19928;-63
2022/03/22 02:13:57;;;;;;;;;;;;;;;-143.90;100.00;55198.59;2093116;28;20051;-63
2022/03/22 02:15:17;;;;;;;;;;;;;;;-143.90;100.00;55210.50;2083790;28;19924;-63
2022/03/22 02:16:38;;;;;;;;;;;;;;;-143.90;100.00;55198.59;2090209;28;19924;-63
2022/03/22 02:17:59;;;;;;;;;;;;;;;-143.90;100.00;55256.16;2093816;28;20049;-62
2022/03/22 02:19:20;;;;;;;;;;;;;;;-143.90;100.00;55196.59;2093922;28;19930;-62
2022/03/22 02:20:40;;;;;;;;;;;;;;;-143.90;100.00;55200.56;2083597;28;19925;-62
2022/03/22 02:22:01;;;;;;;;;;;;;;;-143.90;100.00;55200.56;2090067;28;19998;-63
2022/03/22 02:23:41;;;;;;;;;;;;;;;-143.90;100.00;55182.69;2093176;28;19920;-63
2022/03/22 02:25:02;;;;;;;;;;;;;;;-143.90;100.00;55162.84;2093808;28;19924;-63
2022/03/22 02:26:24;;;;;;;;;;;;;;;-143.90;100.00;55194.63;2093726;28;20375;-62
2022/03/22 02:27:46;;;;;;;;;;;;;;;-143.90;100.00;55174.75;2093071;28;19920;-62
2022/03/22 02:29:06;;;;;;;;;;;;;;;-143.90;100.00;55194.63;2093765;28;20340;-63
2022/03/22 02:30:27;;;;;;;;;;;;;;;-143.90;100.00;55182.69;2093862;28;19928;-63
2022/03/22 02:31:47;;;;;;;;;;;;;;;-143.90;100.00;55180.72;2093540;28;19974;-63
2022/03/22 02:33:08;;;;;;;;;;;;;;;-143.90;100.00;55182.69;2093231;28;19929;-63
2022/03/22 02:34:28;;;;;;;;;;;;;;;-143.90;100.00;55210.50;2093501;28;19932;-62
2022/03/22 02:35:49;;;;;;;;;;;;;;;-143.90;100.00;55162.84;2094522;28;19967;-63
2022/03/22 02:37:10;;;;;;;;;;;;;;;-143.90;100.00;55198.59;2093545;28;20374;-63
2022/03/22 02:38:31;;;;;;;;;;;;;;;-143.90;100.00;55186.69;2092970;28;20336;-63
2022/03/22 02:39:51;;;;;;;;;;;;;;;-143.90;100.00;55198.59;2093109;28;20376;-63
2022/03/22 02:41:16;;;;;;;;;;;;;;;-143.90;100.00;55206.53;2093048;28;19921;-63
2022/03/22 02:42:37;;;;;;;;;;;;;;;-143.90;100.00;55214.47;2093809;28;20026;-63
2022/03/22 02:43:57;;;;;;;;;;;;;;;-143.90;100.00;55182.69;2094103;28;19978;-62
2022/03/22 02:45:18;;;;;;;;;;;;;;;-143.90;100.00;55186.69;2092172;28;20013;-63
2022/03/22 02:46:39;;;;;;;;;;;;;;;-143.90;100.00;55230.34;2093541;28;19927;-63
2022/03/22 02:47:59;;;;;;;;;;;;;;;-143.90;100.00;55218.44;2092521;28;19960;-63
2022/03/22 02:49:21;;;;;;;;;;;;;;;-143.90;100.00;55194.63;2093217;28;20046;-62
2022/03/22 02:50:41;;;;;;;;;;;;;;;-143.90;100.00;55218.44;2093123;28;19953;-63
2022/03/22 02:52:02;;;;;;;;;;;;;;;-143.90;100.00;55182.69;2093314;28;19928;-63
2022/03/22 02:53:23;;;;;;;;;;;;;;;-143.90;100.00;55194.63;2093745;28;20342;-63
2022/03/22 02:54:44;;;;;;;;;;;;;;;-143.90;100.00;55174.75;2094342;28;20971;-63
2022/03/22 02:56:04;;;;;;;;;;;;;;;-143.90;100.00;55174.75;2083784;28;19963;-63
2022/03/22 02:57:25;;;;;;;;;;;;;;;-143.90;100.00;55166.81;2090337;28;20300;-63
2022/03/22 02:58:46;;;;;;;;;;;;;;;-143.90;100.00;55164.84;2092417;28;19921;-63
2022/03/22 03:00:08;;;;;;;;;;;;;;;-143.90;100.00;55178.72;2093512;28;19920;-63
2022/03/22 03:01:32;;;;;;;;;;;;;;;-143.90;100.00;55166.81;2093211;28;20287;-63
2022/03/22 03:02:53;;;;;;;;;;;;;;;-143.90;100.00;55210.50;2094176;28;19955;-63
2022/03/22 03:04:13;;;;;;;;;;;;;;;-143.90;100.00;55146.97;2094103;28;19924;-63
2022/03/22 03:05:34;;;;;;;;;;;;;;;-143.90;100.00;55178.72;2093187;28;20046;-63
2022/03/22 03:06:54;;;;;;;;;;;;;;;-143.90;100.00;55182.69;2093135;28;19928;-63
2022/03/22 03:08:15;;;;;;;;;;;;;;;-143.90;100.00;55192.63;2093724;28;19985;-63
2022/03/22 03:09:36;;;;;;;;;;;;;;;-143.90;100.00;55174.75;2094463;28;19925;-62
2022/03/22 03:10:57;;;;;;;;;;;;;;;-143.90;100.00;55174.75;2093471;28;19920;-63
2022/03/22 03:12:18;;;;;;;;;;;;;;;-143.90;100.00;55202.56;2091986;28;19925;-62
2022/03/22 03:15:18;;;;;;;;;;;;;;;-143.90;100.00;55210.50;2092512;28;20011;-63
2022/03/22 03:16:39;;;;;;;;;;;;;;;-143.90;100.00;55174.75;2093667;28;19921;-63
2022/03/22 03:18:00;;;;;;;;;;;;;;;-143.90;100.00;55202.56;2093851;28;20015;-63
2022/03/22 03:19:20;;;;;;;;;;;;;;;-143.90;100.00;55210.50;2094006;28;19955;-63
2022/03/22 03:20:41;;;;;;;;;;;;;;;-143.90;100.00;55170.78;2093099;28;19920;-63
2022/03/22 03:22:03;;;;;;;;;;;;;;;-143.90;100.00;55230.34;2091832;28;20329;-63
2022/03/22 03:23:23;;;;;;;;;;;;;;;-143.90;100.00;55186.69;2092103;28;20003;-63
2022/03/22 03:24:44;;;;;;;;;;;;;;;-143.90;100.00;55186.69;2093167;28;20010;-63
2022/03/22 03:26:04;;;;;;;;;;;;;;;-143.90;100.00;55186.69;2084768;28;19925;-63
2022/03/22 03:27:25;;;;;;;;;;;;;;;-143.90;100.00;55170.78;2089256;28;19920;-63
2022/03/22 03:28:46;;;;;;;;;;;;;;;-143.90;100.00;55216.47;2093341;28;19942;-63
2022/03/22 03:30:07;;;;;;;;;;;;;;;-143.90;100.00;55154.91;2093362;28;19920;-63
2022/03/22 03:31:29;;;;;;;;;;;;;;;-143.90;100.00;55178.72;2090663;28;20715;-64
2022/03/22 03:32:49;;;;;;;;;;;;;;;-143.90;100.00;55166.81;2092430;28;19920;-64
2022/03/22 03:34:10;;;;;;;;;;;;;;;-143.90;100.00;55194.63;2093873;28;20067;-64
2022/03/22 03:35:31;;;;;;;;;;;;;;;-143.90;100.00;55170.78;2093014;28;19963;-64
2022/03/22 03:36:52;;;;;;;;;;;;;;;-143.90;100.00;55176.75;2092320;28;19974;-64
2022/03/22 03:38:12;;;;;;;;;;;;;;;-143.90;100.00;55202.56;2084417;28;20552;-63
2022/03/22 03:39:33;;;;;;;;;;;;;;;-143.90;100.00;55230.34;2088977;28;19920;-64
2022/03/22 03:42:41;;;;;;;;;;;;;;;-143.90;100.00;55182.69;2092087;28;19926;-64
2022/03/22 03:47:03;;;;;;;;;;;;;;;-143.90;100.00;55202.56;2093194;28;19947;-63
2022/03/22 03:47:22;;;;;;;;;;;;;;;-143.90;100.00;55194.63;2093056;28;19935;-64
2022/03/22 03:48:43;;;;;;;;;;;;;;;-143.90;100.00;55168.81;2092616;28;20324;-63
2022/03/22 03:50:05;;;;;;;;;;;;;;;-143.90;100.00;55230.34;2093855;28;20662;-64
2022/03/22 03:51:26;;;;;;;;;;;;;;;-143.90;100.00;55192.63;2092617;28;20893;-64
2022/03/22 03:52:47;;;;;;;;;;;;;;;-143.90;100.00;55190.66;2091575;28;19959;-64
2022/03/22 03:54:09;;;;;;;;;;;;;;;-143.90;100.00;55218.44;2092419;28;19935;-64
2022/03/22 03:55:30;;;;;;;;;;;;;;;-143.90;100.00;55194.63;2091807;28;19932;-64
2022/03/22 03:56:50;;;;;;;;;;;;;;;-143.90;100.00;55174.75;2091634;28;19920;-64
2022/03/22 03:58:11;;;;;;;;;;;;;;;-143.90;100.00;55176.75;2092991;28;19932;-62
2022/03/22 03:59:35;;;;;;;;;;;;;;;-143.90;100.00;55182.69;2093096;28;19920;-63
2022/03/22 04:00:56;;;;;;;;;;;;;;;-143.90;100.00;55202.56;2094936;28;20383;-64
2022/03/22 04:02:17;;;;;;;;;;;;;;;-143.90;100.00;55182.69;2091886;28;19924;-64
2022/03/22 04:03:39;;;;;;;;;;;;;;;-143.90;100.00;55208.50;2090897;28;20303;-63
2022/03/22 04:05:00;;;;;;;;;;;;;;;-143.90;100.00;55234.31;2091925;28;20757;-64
2022/03/22 04:06:21;;;;;;;;;;;;;;;-143.90;100.00;55172.78;2092604;28;19928;-64
2022/03/22 04:07:41;;;;;;;;;;;;;;;-143.90;100.00;55200.56;2092828;28;19920;-64
2022/03/22 04:09:02;;;;;;;;;;;;;;;-143.90;100.00;55174.75;2091221;28;19927;-64
2022/03/22 04:10:24;;;;;;;;;;;;;;;-143.90;100.00;55220.44;2093764;28;19962;-64
2022/03/22 04:11:45;;;;;;;;;;;;;;;-143.90;100.00;55186.69;2090059;28;19920;-64
2022/03/22 04:13:06;;;;;;;;;;;;;;;-143.90;100.00;55174.75;2091556;28;19970;-64
2022/03/22 04:14:27;;;;;;;;;;;;;;;-143.90;100.00;55210.50;2091224;28;19927;-64
2022/03/22 04:15:47;;;;;;;;;;;;;;;-143.90;100.00;55186.69;2093641;28;19924;-63
2022/03/22 04:17:08;;;;;;;;;;;;;;;-143.90;100.00;55182.69;2092658;28;19960;-64
2022/03/22 04:18:29;;;;;;;;;;;;;;;-143.90;100.00;55200.56;2084965;28;19920;-64
2022/03/22 04:19:50;;;;;;;;;;;;;;;-143.90;100.00;55178.72;2089596;28;20009;-64
2022/03/22 04:21:11;;;;;;;;;;;;;;;-143.90;100.00;55198.59;2092580;28;19920;-64
2022/03/22 04:22:32;;;;;;;;;;;;;;;-143.90;100.00;55218.44;2093218;28;20726;-64
2022/03/22 04:23:52;;;;;;;;;;;;;;;-143.90;100.00;55202.56;2084725;28;19921;-64
2022/03/22 04:25:13;;;;;;;;;;;;;;;-143.90;100.00;55172.78;2079090;28;19961;-64
2022/03/22 04:26:35;;;;;;;;;;;;;;;-143.90;100.00;55202.56;2075814;28;20023;-64
2022/03/22 04:32:54;;;;;;;;;;;;;;;-143.90;100.00;55192.63;2077022;28;19921;-64
2022/03/22 04:34:15;;;;;;;;;;;;;;;-143.90;100.00;55182.69;2074357;28;20017;-64
2022/03/22 04:35:37;;;;;;;;;;;;;;;-143.90;100.00;55198.59;2075537;28;19943;-64
2022/03/22 04:36:59;;;;;;;;;;;;;;;-143.90;100.00;55186.69;2075359;28;19920;-64
2022/03/22 04:38:20;;;;;;;;;;;;;;;-143.90;100.00;55190.66;2075516;28;19957;-64
2022/03/22 04:39:41;;;;;;;;;;;;;;;-143.90;100.00;55143.00;2076128;28;19921;-63
2022/03/22 04:41:02;;;;;;;;;;;;;;;-143.90;100.00;55180.72;2074834;28;20742;-64
2022/03/22 04:42:23;;;;;;;;;;;;;;;-143.90;100.00;55228.38;2075699;28;19948;-62
2022/03/22 04:43:43;;;;;;;;;;;;;;;-143.90;100.00;55238.31;2072992;28;19960;-64
2022/03/22 04:45:04;;;;;;;;;;;;;;;-143.90;100.00;55190.66;2074536;28;19932;-64
2022/03/22 04:46:26;;;;;;;;;;;;;;;-143.90;100.00;55210.50;2075026;28;20612;-64
2022/03/22 04:47:46;;;;;;;;;;;;;;;-143.90;100.00;55176.75;2077047;28;20352;-64
2022/03/22 04:49:07;;;;;;;;;;;;;;;-143.90;100.00;55202.56;2075901;28;20008;-64
2022/03/22 04:50:27;;;;;;;;;;;;;;;-143.90;100.00;55178.72;2073409;28;19994;-64
2022/03/22 04:57:06;;;;;;;;;;;;;;;-143.90;100.00;55210.50;2066251;28;20000;-64
2022/03/22 04:58:27;;;;;;;;;;;;;;;-143.90;100.00;55188.66;2064712;28;20420;-64
2022/03/22 04:59:48;;;;;;;;;;;;;;;-143.90;100.00;55206.53;2066576;28;19928;-64
2022/03/22 05:01:09;;;;;;;;;;;;;;;-143.90;100.00;55210.50;2072664;28;19925;-64
2022/03/22 05:02:30;;;;;;;;;;;;;;;-143.90;100.00;55194.63;2080029;28;19928;-64
2022/03/22 05:03:50;;;;;;;;;;;;;;;-143.90;100.00;55186.69;2075467;28;19963;-64
2022/03/22 05:05:11;;;;;;;;;;;;;;;-143.90;100.00;55198.59;2066758;28;19925;-63
2022/03/22 05:06:35;;;;;;;;;;;;;;;-143.90;100.00;55210.50;2060142;28;19926;-64
2022/03/22 05:07:56;;;;;;;;;;;;;;;-143.90;100.00;55198.59;2071497;28;20307;-63
2022/03/22 05:09:17;;;;;;;;;;;;;;;-143.90;100.00;55194.63;2073447;28;19921;-63
2022/03/22 05:10:39;;;;;;;;;;;;;;;-143.90;100.00;55202.56;2075812;28;20011;-63
2022/03/22 05:12:00;;;;;;;;;;;;;;;-143.90;100.00;55182.69;2074119;28;19921;-63
2022/03/22 05:13:20;;;;;;;;;;;;;;;-143.90;100.00;55246.25;2074625;28;19932;-64
2022/03/22 05:14:42;;;;;;;;;;;;;;;-143.90;100.00;55258.16;2076169;28;19956;-62
2022/03/22 05:16:03;;;;;;;;;;;;;;;-143.90;100.00;55204.53;2075505;28;20379;-64
2022/03/22 05:17:24;;;;;;;;;;;;;;;-143.90;100.00;55170.78;2074349;28;19920;-64
2022/03/22 05:18:44;;;;;;;;;;;;;;;-143.90;100.00;55196.59;2073937;28;20439;-64
2022/03/22 05:20:06;;;;;;;;;;;;;;;-143.90;100.00;55186.69;2076180;28;19968;-64
2022/03/22 05:21:27;;;;;;;;;;;;;;;-143.90;100.00;55218.44;2075143;28;19925;-63
2022/03/22 05:22:48;;;;;;;;;;;;;;;-143.90;100.00;55210.50;2076822;28;19950;-63
2022/03/22 05:24:09;;;;;;;;;;;;;;;-143.90;100.00;55226.38;2066734;28;19952;-64
2022/03/22 05:25:31;;;;;;;;;;;;;;;-143.90;100.00;55196.59;2078624;28;19925;-64
2022/03/22 05:26:52;;;;;;;;;;;;;;;-143.90;100.00;55200.56;2083999;28;19920;-63
2022/03/22 05:28:12;;;;;;;;;;;;;;;-143.90;100.00;55214.47;2083406;28;19979;-64
2022/03/22 05:29:33;;;;;;;;;;;;;;;-143.90;100.00;55224.41;2084255;28;19920;-63
2022/03/22 05:30:54;;;;;;;;;;;;;;;-143.90;100.00;55182.69;2084194;28;20378;-64
2022/03/22 05:32:14;;;;;;;;;;;;;;;-143.90;100.00;55186.69;2084688;28;20377;-63
2022/03/22 05:33:38;;;;;;;;;;;;;;;-143.90;100.00;55196.59;2081931;28;20662;-64
2022/03/22 05:34:59;;;;;;;;;;;;;;;-143.90;100.00;55174.75;2082246;28;19998;-63
2022/03/22 05:36:20;;;;;;;;;;;;;;;-143.90;100.00;55190.66;2083341;28;19921;-64
2022/03/22 05:37:41;;;;;;;;;;;;;;;-143.90;100.00;55182.69;2083138;28;19920;-64
2022/03/22 05:39:01;;;;;;;;;;;;;;;-143.90;100.00;55214.47;2083965;28;19920;-64
2022/03/22 05:40:22;;;;;;;;;;;;;;;-143.90;100.00;55164.84;2084510;28;19917;-64
2022/03/22 05:41:44;;;;;;;;;;;;;;;-143.90;100.00;55200.56;2084046;28;20116;-62
2022/03/22 05:43:05;;;;;;;;;;;;;;;-143.90;100.00;55206.53;2082859;28;19924;-64
2022/03/22 05:44:26;;;;;;;;;;;;;;;-143.90;100.00;55242.28;2083284;28;20448;-64
2022/03/22 05:45:48;;;;;;;;;;;;;;;-143.90;100.00;55190.66;2083410;28;19928;-64
2022/03/22 05:47:09;;;;;;;;;;;;;;;-143.90;100.00;55214.47;2084632;28;19917;-64
2022/03/22 05:48:30;;;;;;;;;;;;;;;-143.90;100.00;55236.31;2083980;28;19920;-64
2022/03/22 05:49:51;;;;;;;;;;;;;;;-143.90;100.00;55162.84;2083390;28;19927;-63
2022/03/22 05:51:13;;;;;;;;;;;;;;;-143.90;100.00;55226.38;2084686;28;19929;-64
2022/03/22 05:52:33;;;;;;;;;;;;;;;-143.90;100.00;55218.44;2083548;28;19917;-64
2022/03/22 05:53:54;;;;;;;;;;;;;;;-143.90;100.00;55182.69;2083869;28;19955;-63
2022/03/22 05:55:15;;;;;;;;;;;;;;;-143.90;100.00;55218.44;2085091;28;20411;-62
2022/03/22 05:56:35;;;;;;;;;;;;;;;-143.90;100.00;55182.69;2084457;28;19923;-64
2022/03/22 05:57:56;;;;;;;;;;;;;;;-143.90;100.00;55202.56;2083983;28;19917;-64
2022/03/22 05:59:17;;;;;;;;;;;;;;;-143.90;100.00;55204.53;2085578;28;19920;-64
2022/03/22 06:00:38;;;;;;;;;;;;;;;-143.90;100.00;55194.63;2084232;28;20082;-64
2022/03/22 06:01:58;;;;;;;;;;;;;;;-143.90;100.00;55206.53;2085551;28;19920;-64
2022/03/22 06:03:19;;;;;;;;;;;;;;;-143.90;100.00;55174.75;2086107;28;19920;-64
2022/03/22 06:04:41;;;;;;;;;;;;;;;-143.90;100.00;55166.81;2085630;28;20389;-64
2022/03/22 06:06:01;;;;;;;;;;;;;;;-143.90;100.00;55202.56;2084659;28;19924;-64
2022/03/22 06:07:22;;;;;;;;;;;;;;;-143.90;100.00;55194.63;2084493;28;20363;-64
2022/03/22 06:08:44;;;;;;;;;;;;;;;-143.90;100.00;55182.69;2083786;28;19931;-64
2022/03/22 06:10:06;;;;;;;;;;;;;;;-143.90;100.00;55202.56;2083825;28;19916;-64
2022/03/22 06:11:34;;;;;;;;;;;;;;;-143.90;100.00;55160.84;2085324;28;19995;-64
2022/03/22 06:12:56;;;;;;;;;;;;;;;-143.90;100.00;55186.69;2084980;28;20380;-64
2022/03/22 06:14:16;;;;;;;;;;;;;;;-143.90;100.00;55190.66;2085310;28;19927;-64
2022/03/22 06:15:38;;;;;;;;;;;;;;;-143.90;100.00;55202.56;2085417;28;20372;-63
2022/03/22 06:16:59;;;;;;;;;;;;;;;-143.90;100.00;55154.91;2084317;28;19920;-64
2022/03/22 06:18:20;;;;;;;;;;;;;;;-143.90;100.00;55184.69;2083781;28;20380;-64
2022/03/22 06:19:41;;;;;;;;;;;;;;;-143.90;100.00;55162.84;2085009;28;20442;-63
2022/03/22 06:21:02;;;;;;;;;;;;;;;-143.90;100.00;55200.56;2085087;28;20035;-64
2022/03/22 06:22:23;;;;;;;;;;;;;;;-143.90;100.00;55143.00;2083556;28;19956;-63
2022/03/22 06:23:43;;;;;;;;;;;;;;;-143.90;100.00;55174.75;2085098;28;20039;-63
2022/03/22 06:25:04;;;;;;;;;;;;;;;-143.90;100.00;55194.63;2084497;28;20400;-64
2022/03/22 06:26:25;;;;;;;;;;;;;;;-143.90;100.00;55188.66;2084663;28;20365;-64
2022/03/22 06:27:49;;;;;;;;;;;;;;;-143.90;100.00;55218.44;2085447;28;19927;-64
2022/03/22 06:29:10;;;;;;;;;;;;;;;-143.90;100.00;55178.72;2084670;28;19920;-63
2022/03/22 06:30:31;;;;;;;;;;;;;;;-143.90;100.00;55198.59;2079463;28;19921;-64
2022/03/22 06:31:52;;;;;;;;;;;;;;;-143.90;100.00;55202.56;2084846;28;20054;-64
2022/03/22 06:33:16;;;;;;;;;;;;;;;-143.90;100.00;55160.84;2085701;28;20051;-64
2022/03/22 06:34:37;;;;;;;;;;;;;;;-143.90;100.00;55178.72;2091707;28;20014;-64
2022/03/22 06:35:57;;;;;;;;;;;;;;;-143.90;100.00;55184.69;2093321;28;20077;-64
2022/03/22 06:37:18;;;;;;;;;;;;;;;-143.90;100.00;55168.81;2094468;28;20486;-64
2022/03/22 06:38:39;;;;;;;;;;;;;;;-143.90;100.00;55182.69;2093947;28;19986;-64
2022/03/22 06:40:00;;;;;;;;;;;;;;;-143.90;100.00;55204.53;2091957;28;20868;-64
2022/03/22 06:41:20;;;;;;;;;;;;;;;-143.90;100.00;55198.59;2092142;28;19916;-62
2022/03/22 06:42:41;;;;;;;;;;;;;;;-143.90;100.00;55166.81;2093508;28;19975;-62
2022/03/22 06:44:02;;;;;;;;;;;;;;;-143.90;100.00;55182.69;2093859;28;20010;-62
2022/03/22 06:45:23;;;;;;;;;;;;;;;-143.90;100.00;55204.53;2093082;28;20452;-62
2022/03/22 06:46:44;;;;;;;;;;;;;;;-143.90;100.00;55210.50;2093659;28;20433;-62
2022/03/22 06:48:06;;;;;;;;;;;;;;;-143.90;99.09;55210.50;2092051;28;20002;-62
2022/03/22 06:49:27;;;;;;;;;;;;;;;-143.90;97.82;55166.81;2092894;28;19916;-62
2022/03/22 06:50:49;;;;;;;;;;;;;;;-143.90;96.22;55164.84;2092658;28;19924;-62
2022/03/22 06:52:10;;;;;;;;;;;;;;;-143.90;94.08;55158.88;2091864;28;19926;-62
2022/03/22 06:53:30;;;;;;;;;;;;;;;-143.90;94.59;55174.75;2094176;28;20364;-62
2022/03/22 06:54:51;;;;;;;;;;;;;;;-143.90;93.82;55194.63;2093610;28;19926;-62
2022/03/22 06:56:13;;;;;;;;;;;;;;;-143.90;91.94;55186.69;2091954;28;19916;-62
2022/03/22 06:57:34;;;;;;;;;;;;;;;-143.90;90.93;55186.69;2091380;28;20038;-62
2022/03/22 06:58:55;;;;;;;;;;;;;;;-143.90;89.38;55170.78;2092813;28;20765;-62
2022/03/22 07:00:20;;;;;;;;;;;;;;;-143.90;88.14;55166.81;2092631;28;19920;-62
2022/03/22 07:01:40;;;;;;;;;;;;;;;-143.90;87.25;55190.66;2093581;28;19916;-62
2022/03/22 07:03:02;;;;;;;;;;;;;;;-143.90;86.25;55206.53;2093839;28;19920;-63
2022/03/22 07:04:23;;;;;;;;;;;;;;;-143.90;85.20;55119.16;2084247;28;19949;-62
2022/03/22 07:05:46;;;;;;;;;;;;;;;-143.90;84.73;55160.84;2089877;28;19920;-63
2022/03/22 07:07:07;;;;;;;;;;;;;;;-143.90;82.41;55160.84;2092315;28;19917;-62
2022/03/22 07:08:28;;;;;;;;;;;;;;;-143.90;81.05;55166.81;2092920;28;19959;-62